Time;durP1;ratioP1;P1;durP2;ratioP2;P2;SDS_P1;SDS_P2;PMS_P1;PMS_P2;Temp;Humidity;BMP_temperature;BMP_pressure;BME280_temperature;BME280_humidity;BME280_pressure;Samples;Min_cycle;Max_cycle;Signal;HPM_P1;HPM_P2
2023/09/15 00:01:35;;;;;;;23.20;14.30;;;;;;;15.90;100.00;96787.34;5042706;28;20048;-65
2023/09/15 00:04:05;;;;;;;18.88;14.15;;;;;;;15.82;100.00;96789.34;5042790;28;20041;-65
2023/09/15 00:06:31;;;;;;;20.90;15.65;;;;;;;15.85;100.00;96799.63;5041713;28;20045;-65
2023/09/15 00:08:57;;;;;;;21.27;14.48;;;;;;;15.85;100.00;96797.63;5041716;28;20082;-64
2023/09/15 00:11:23;;;;;;;23.48;14.32;;;;;;;15.76;100.00;96791.75;5037612;28;20855;-66
2023/09/15 00:13:48;;;;;;;18.08;13.65;;;;;;;15.76;100.00;96788.97;5034291;28;20200;-65
2023/09/15 00:16:14;;;;;;;20.27;14.30;;;;;;;15.69;100.00;96786.22;5042460;28;20045;-66
2023/09/15 00:18:41;;;;;;;19.05;14.60;;;;;;;15.62;100.00;96784.25;5045208;28;20048;-68
2023/09/15 00:21:09;;;;;;;20.08;14.73;;;;;;;15.68;100.00;96777.16;5033614;28;20034;-66
2023/09/15 00:23:37;;;;;;;23.05;15.57;;;;;;;15.61;100.00;96779.13;5040279;28;20553;-66
2023/09/15 00:26:03;;;;;;;21.52;15.95;;;;;;;15.53;100.00;96778.34;5045209;28;20053;-66
2023/09/15 00:28:29;;;;;;;22.35;15.88;;;;;;;15.48;100.00;96774.03;5042172;28;20083;-66
2023/09/15 00:30:58;;;;;;;23.45;16.95;;;;;;;15.51;100.00;96775.22;5033476;28;20042;-66
2023/09/15 00:33:23;;;;;;;26.65;17.77;;;;;;;15.51;100.00;96771.66;5040060;28;20045;-65
2023/09/15 00:35:48;;;;;;;22.55;15.32;;;;;;;15.48;100.00;96773.22;5048729;28;20044;-66
2023/09/15 00:38:14;;;;;;;22.90;15.60;;;;;;;15.41;100.00;96764.97;5045276;28;20044;-66
2023/09/15 00:40:40;;;;;;;21.98;15.60;;;;;;;15.55;100.00;96764.16;5040843;28;20081;-67
2023/09/15 00:43:06;;;;;;;25.45;17.67;;;;;;;15.55;100.00;96764.94;5035738;28;20128;-67
2023/09/15 00:45:31;;;;;;;24.38;17.67;;;;;;;15.60;100.00;96756.25;5038930;28;20037;-67
2023/09/15 00:47:57;;;;;;;20.60;16.23;;;;;;;15.61;100.00;96760.59;5041323;28;20499;-67
2023/09/15 00:50:29;;;;;;;23.20;16.13;;;;;;;15.59;100.00;96754.69;5036811;28;20045;-67
2023/09/15 00:53:04;;;;;;;28.90;17.42;;;;;;;15.53;100.00;96755.50;5041347;28;20140;-66
2023/09/15 00:55:33;;;;;;;31.50;18.27;;;;;;;15.55;100.00;96753.13;5039201;28;20041;-65
2023/09/15 00:58:01;;;;;;;30.95;17.83;;;;;;;15.55;100.00;96758.63;5041646;28;20071;-66
2023/09/15 01:00:28;;;;;;;26.50;17.77;;;;;;;15.52;100.00;96745.63;5030685;28;20049;-65
2023/09/15 01:02:53;;;;;;;28.83;18.58;;;;;;;15.55;100.00;96747.59;5040811;28;20081;-67
2023/09/15 01:05:24;;;;;;;25.77;17.67;;;;;;;15.53;100.00;96750.75;5033875;28;20090;-66
2023/09/15 01:07:52;;;;;;;30.27;18.70;;;;;;;15.51;100.00;96749.59;5043326;28;20049;-67
2023/09/15 01:10:22;;;;;;;25.75;16.40;;;;;;;15.52;100.00;96757.47;5036270;28;20048;-67
2023/09/15 01:12:49;;;;;;;25.15;16.63;;;;;;;15.48;100.00;96749.19;5031762;28;20103;-67
2023/09/15 01:15:16;;;;;;;22.52;17.27;;;;;;;15.48;100.00;96754.72;5031071;28;20037;-67
2023/09/15 01:18:05;;;;;;;26.50;17.30;;;;;;;15.46;100.00;96746.03;5038316;28;20044;-67
2023/09/15 01:21:05;;;;;;;24.35;17.25;;;;;;;15.44;100.00;96751.16;5046166;28;20049;-67
2023/09/15 01:24:20;;;;;;;24.15;17.55;;;;;;;15.46;100.00;96740.50;5049865;28;20075;-65
2023/09/15 01:27:12;;;;;;;26.60;18.90;;;;;;;15.45;100.00;96738.94;5019332;28;20045;-67
2023/09/15 01:29:47;;;;;;;28.00;17.77;;;;;;;15.43;100.00;96735.00;5052929;28;20064;-67
2023/09/15 01:32:15;;;;;;;27.25;17.98;;;;;;;15.43;100.00;96735.81;5036187;28;20491;-67
2023/09/15 01:34:47;;;;;;;25.35;17.83;;;;;;;15.37;100.00;96733.84;5042910;28;20063;-68
2023/09/15 01:37:13;;;;;;;22.50;17.40;;;;;;;15.36;100.00;96732.25;5036628;28;20060;-67
2023/09/15 01:39:38;;;;;;;28.38;17.88;;;;;;;15.32;100.00;96732.25;5041386;28;20190;-66
2023/09/15 01:42:04;;;;;;;27.17;18.38;;;;;;;15.31;100.00;96729.91;5037167;28;20044;-66
2023/09/15 01:44:30;;;;;;;29.27;18.40;;;;;;;15.27;100.00;96733.47;5034788;28;20042;-67
2023/09/15 01:46:56;;;;;;;33.88;18.83;;;;;;;15.30;100.00;96734.63;5036081;28;20037;-65
2023/09/15 01:49:22;;;;;;;26.13;18.80;;;;;;;15.33;100.00;96728.31;5031577;28;20165;-67
2023/09/15 01:51:48;;;;;;;25.45;18.27;;;;;;;15.25;100.00;96733.06;5021729;28;20045;-67
2023/09/15 01:54:15;;;;;;;25.23;18.42;;;;;;;15.20;100.00;96730.72;5030500;28;20534;-66
2023/09/15 01:56:40;;;;;;;24.98;18.50;;;;;;;15.18;100.00;96726.75;5042388;28;20147;-66
2023/09/15 01:59:06;;;;;;;26.95;19.88;;;;;;;15.20;100.00;96732.69;5036303;28;20219;-68
2023/09/15 02:01:32;;;;;;;27.88;19.58;;;;;;;15.20;100.00;96730.72;5040709;28;20045;-67
2023/09/15 02:03:57;;;;;;;34.78;19.95;;;;;;;15.19;100.00;96726.38;5045615;28;20083;-66
2023/09/15 02:06:23;;;;;;;27.65;17.92;;;;;;;15.18;100.00;96730.31;5021626;28;20195;-66
2023/09/15 02:08:48;;;;;;;28.67;19.17;;;;;;;15.22;100.00;96725.59;5034037;28;20037;-66
2023/09/15 02:11:14;;;;;;;26.98;20.17;;;;;;;15.21;100.00;96731.50;5024035;28;20055;-67
2023/09/15 02:13:43;;;;;;;29.45;20.55;;;;;;;15.14;100.00;96731.50;5034507;28;20116;-67
2023/09/15 02:16:08;;;;;;;32.40;20.07;;;;;;;15.10;100.00;96737.78;5016191;28;20514;-66
2023/09/15 02:18:34;;;;;;;29.52;20.13;;;;;;;15.02;100.00;96741.75;5045319;28;20033;-67
2023/09/15 02:21:00;;;;;;;28.27;20.25;;;;;;;14.94;100.00;96742.94;5044557;28;20037;-67
2023/09/15 02:23:26;;;;;;;27.25;19.05;;;;;;;14.89;100.00;96735.84;5032228;28;20048;-67
2023/09/15 02:25:52;;;;;;;28.17;19.95;;;;;;;14.93;100.00;96735.84;5050968;28;20045;-67
2023/09/15 02:28:19;;;;;;;31.50;20.98;;;;;;;14.86;100.00;96744.13;5041882;28;20044;-68
2023/09/15 02:30:45;;;;;;;30.00;19.65;;;;;;;14.80;100.00;96740.97;5039405;28;20041;-66
2023/09/15 02:33:10;;;;;;;28.63;19.67;;;;;;;14.79;100.00;96739.41;5039158;28;20044;-66
2023/09/15 02:35:35;;;;;;;33.08;20.90;;;;;;;14.78;100.00;96751.59;5043988;28;20444;-66
2023/09/15 02:38:01;;;;;;;34.40;21.15;;;;;;;14.80;100.00;96742.94;5034691;28;20047;-66
2023/09/15 02:40:26;;;;;;;29.13;20.48;;;;;;;14.80;100.00;96737.41;5034380;28;20043;-67
2023/09/15 02:42:52;;;;;;;31.58;21.55;;;;;;;14.80;100.00;96737.41;5036079;28;20087;-66
2023/09/15 02:45:17;;;;;;;30.27;20.67;;;;;;;14.77;100.00;96732.72;5026123;28;20107;-66
2023/09/15 02:47:43;;;;;;;31.08;21.48;;;;;;;14.78;100.00;96732.28;5041120;28;20641;-67
2023/09/15 02:50:09;;;;;;;30.52;20.48;;;;;;;14.83;100.00;96723.63;5038702;28;20048;-68
2023/09/15 02:52:34;;;;;;;29.60;20.98;;;;;;;14.83;100.00;96728.38;5044420;28;20455;-68
2023/09/15 02:55:00;;;;;;;33.47;21.75;;;;;;;14.90;100.00;96726.38;5044968;28;20552;-69
2023/09/15 02:57:26;;;;;;;30.67;20.30;;;;;;;14.88;100.00;96727.97;5035002;28;20071;-68
2023/09/15 02:59:53;;;;;;;30.60;20.38;;;;;;;14.90;100.00;96731.91;5048156;28;20054;-68
2023/09/15 03:02:22;;;;;;;27.88;20.63;;;;;;;14.92;100.00;96726.00;5042599;28;20040;-68
2023/09/15 03:04:48;;;;;;;30.67;22.33;;;;;;;14.94;100.00;96729.16;5037916;28;20041;-68
2023/09/15 03:07:14;;;;;;;30.05;21.02;;;;;;;14.91;100.00;96716.94;5038886;28;20415;-68
2023/09/15 03:09:40;;;;;;;30.08;21.20;;;;;;;14.91;100.00;96714.19;5035371;28;20036;-68
2023/09/15 03:12:05;;;;;;;34.00;21.20;;;;;;;14.89;100.00;96711.03;5036574;28;20504;-67
2023/09/15 03:14:32;;;;;;;32.15;20.50;;;;;;;14.88;100.00;96709.47;5044485;28;20037;-68
2023/09/15 03:16:57;;;;;;;30.83;21.45;;;;;;;14.89;100.00;96711.03;5043928;28;20045;-68
2023/09/15 03:19:22;;;;;;;33.17;21.65;;;;;;;14.84;100.00;96711.44;5037467;28;20439;-67
2023/09/15 03:21:48;;;;;;;33.13;21.33;;;;;;;14.83;100.00;96706.31;5042682;28;20183;-68
2023/09/15 03:24:13;;;;;;;30.42;20.67;;;;;;;14.85;100.00;96712.22;5029040;28;20095;-67
2023/09/15 03:26:40;;;;;;;30.52;21.65;;;;;;;14.84;100.00;96702.38;5043557;28;20471;-68
2023/09/15 03:29:06;;;;;;;33.33;21.92;;;;;;;14.78;100.00;96701.19;5039407;28;20049;-68
2023/09/15 03:31:32;;;;;;;36.17;22.63;;;;;;;14.71;100.00;96702.78;5044610;28;20040;-69
2023/09/15 03:33:57;;;;;;;34.60;21.58;;;;;;;14.72;100.00;96706.31;5043783;28;20048;-67
2023/09/15 03:36:25;;;;;;;33.97;22.90;;;;;;;14.67;100.00;96709.47;5038635;28;20044;-68
2023/09/15 03:38:51;;;;;;;32.05;21.75;;;;;;;14.66;100.00;96705.91;5043094;28;20056;-69
2023/09/15 03:41:16;;;;;;;34.60;23.27;;;;;;;14.61;100.00;96703.56;5037981;28;20041;-68
2023/09/15 03:43:42;;;;;;;35.25;23.08;;;;;;;14.60;100.00;96704.72;5043140;28;20561;-68
2023/09/15 03:46:07;;;;;;;34.05;23.50;;;;;;;14.59;100.00;96703.16;5033905;28;20041;-67
2023/09/15 03:48:32;;;;;;;35.17;22.75;;;;;;;14.56;100.00;96703.13;5036423;28;20137;-68
2023/09/15 03:50:58;;;;;;;32.33;23.05;;;;;;;14.55;100.00;96688.56;5043162;28;20037;-67
2023/09/15 03:53:24;;;;;;;33.97;22.90;;;;;;;14.47;100.00;96692.47;5038190;28;20123;-68
2023/09/15 03:55:49;;;;;;;35.95;22.75;;;;;;;14.41;100.00;96699.56;5042332;28;20033;-68
2023/09/15 03:58:15;;;;;;;35.40;22.73;;;;;;;14.32;100.00;96697.19;5036798;28;20111;-67
2023/09/15 04:00:41;;;;;;;40.85;23.50;;;;;;;14.29;100.00;96696.00;5042431;28;20073;-67
2023/09/15 04:03:06;;;;;;;37.63;25.33;;;;;;;14.26;100.00;96707.81;5037558;28;20153;-67
2023/09/15 04:05:32;;;;;;;36.97;23.90;;;;;;;14.27;100.00;96689.31;5042196;28;20045;-67
2023/09/15 04:07:58;;;;;;;35.60;22.13;;;;;;;14.29;100.00;96698.75;5033358;28;20049;-66
2023/09/15 04:10:23;;;;;;;33.45;22.05;;;;;;;14.29;100.00;96693.25;5035988;28;20264;-68
2023/09/15 04:12:49;;;;;;;38.00;23.98;;;;;;;14.23;100.00;96691.28;5037700;28;20037;-66
2023/09/15 04:15:15;;;;;;;36.58;24.25;;;;;;;14.22;100.00;96690.47;5030061;28;20037;-66
2023/09/15 04:17:41;;;;;;;37.67;23.67;;;;;;;14.17;100.00;96692.81;5042293;28;20049;-67
2023/09/15 04:20:09;;;;;;;35.60;23.73;;;;;;;14.09;100.00;96701.06;5027463;28;20140;-67
2023/09/15 04:22:39;;;;;;;34.60;23.15;;;;;;;14.10;100.00;96702.66;5042329;28;20045;-67
2023/09/15 04:25:06;;;;;;;35.45;23.95;;;;;;;14.09;100.00;96703.06;5029449;28;20040;-66
2023/09/15 04:27:32;;;;;;;35.95;23.73;;;;;;;14.09;100.00;96698.31;5041937;28;20041;-67
2023/09/15 04:29:58;;;;;;;37.28;23.40;;;;;;;14.07;100.00;96713.66;5042566;28;20051;-68
2023/09/15 04:32:26;;;;;;;35.65;23.00;;;;;;;14.09;100.00;96717.59;5031400;28;20442;-69
2023/09/15 04:34:52;;;;;;;33.25;22.48;;;;;;;14.06;100.00;96726.66;5034457;28;20045;-68
2023/09/15 04:37:18;;;;;;;35.78;22.15;;;;;;;14.24;100.00;96725.91;5037288;28;20048;-68
2023/09/15 04:39:44;;;;;;;30.90;21.70;;;;;;;14.27;100.00;96725.13;5042037;28;20106;-68
2023/09/15 04:42:16;;;;;;;33.22;21.40;;;;;;;14.33;100.00;96729.88;5044459;27;20479;-70
2023/09/15 04:44:42;;;;;;;34.90;22.15;;;;;;;14.24;100.00;96739.66;5046518;28;20049;-69
2023/09/15 04:47:07;;;;;;;35.22;23.40;;;;;;;14.20;100.00;96734.16;5029280;28;20052;-68
2023/09/15 04:49:33;;;;;;;34.33;22.77;;;;;;;14.31;100.00;96736.94;5021354;28;20041;-68
2023/09/15 04:51:59;;;;;;;36.47;22.00;;;;;;;14.33;100.00;96740.09;5017097;28;20386;-69
2023/09/15 04:54:26;;;;;;;34.10;22.38;;;;;;;14.43;100.00;96747.59;5016534;28;20045;-69
2023/09/15 04:56:51;;;;;;;34.42;21.45;;;;;;;14.49;100.00;96742.47;5024327;28;20085;-70
2023/09/15 04:59:17;;;;;;;34.38;21.42;;;;;;;14.49;100.00;96746.00;5021992;28;20076;-69
2023/09/15 05:01:43;;;;;;;30.55;20.88;;;;;;;14.47;100.00;96753.88;5042003;28;20049;-69
2023/09/15 05:04:10;;;;;;;32.63;21.55;;;;;;;14.42;100.00;96750.72;5021861;28;20049;-68
2023/09/15 05:06:35;;;;;;;30.88;20.60;;;;;;;14.44;100.00;96749.19;5023311;28;20037;-69
2023/09/15 05:09:02;;;;;;;35.08;22.58;;;;;;;14.37;100.00;96751.09;5020905;28;20087;-68
2023/09/15 05:11:27;;;;;;;34.03;23.35;;;;;;;14.30;100.00;96752.69;5034487;28;20515;-66
2023/09/15 05:13:53;;;;;;;38.00;24.10;;;;;;;14.45;100.00;96753.50;5038948;28;20037;-68
2023/09/15 05:16:19;;;;;;;31.50;21.23;;;;;;;14.54;100.00;96748.38;5036532;28;20511;-66
2023/09/15 05:18:45;;;;;;;29.05;20.67;;;;;;;14.85;100.00;96759.09;5038713;28;20037;-68
2023/09/15 05:21:11;;;;;;;35.10;22.85;;;;;;;14.82;100.00;96757.09;5033512;28;20091;-68
2023/09/15 05:23:36;;;;;;;30.88;21.00;;;;;;;15.03;100.00;96768.16;5053051;28;20056;-68
2023/09/15 05:26:02;;;;;;;30.75;19.35;;;;;;;15.46;100.00;96764.56;5035347;28;20045;-67
2023/09/15 05:28:27;;;;;;;27.00;19.20;;;;;;;15.84;100.00;96773.16;5033361;28;20132;-69
2023/09/15 05:30:57;;;;;;;31.17;20.00;;;;;;;16.07;100.00;96772.69;5036620;28;20049;-68
2023/09/15 05:33:24;;;;;;;26.35;16.55;;;;;;;16.70;100.00;96770.00;5032024;28;20049;-69
2023/09/15 05:35:53;;;;;;;28.65;17.55;;;;;;;17.61;100.00;96772.81;5035721;28;20570;-68
2023/09/15 05:38:19;;;;;;;26.40;17.88;;;;;;;17.24;100.00;96774.34;5039022;28;20123;-69
2023/09/15 05:40:44;;;;;;;23.35;16.67;;;;;;;16.82;100.00;96766.75;5039041;28;20135;-68
2023/09/15 05:43:10;;;;;;;25.40;18.05;;;;;;;16.00;100.00;96775.50;5031077;28;20092;-68
2023/09/15 05:45:35;;;;;;;27.90;17.83;;;;;;;16.53;100.00;96779.97;5036851;28;20045;-69
2023/09/15 05:48:01;;;;;;;24.42;17.25;;;;;;;15.91;100.00;96775.91;5043842;28;20049;-69
2023/09/15 05:50:26;;;;;;;27.20;19.17;;;;;;;15.79;100.00;96768.06;5046661;28;20045;-67
2023/09/15 05:52:51;;;;;;;27.90;19.20;;;;;;;16.05;100.00;96769.56;5025504;28;20057;-68
2023/09/15 05:55:17;;;;;;;25.88;18.63;;;;;;;16.65;100.00;96775.16;5018211;28;20124;-68
2023/09/15 05:57:42;;;;;;;26.88;17.35;;;;;;;16.55;100.00;96774.81;5023474;28;20061;-68
2023/09/15 06:00:08;;;;;;;27.10;17.02;;;;;;;17.04;100.00;96782.44;5029897;28;20049;-69
2023/09/15 06:02:33;;;;;;;24.25;17.30;;;;;;;17.45;100.00;96773.34;5023124;28;20049;-69
2023/09/15 06:04:59;;;;;;;24.88;16.20;;;;;;;17.81;100.00;96784.88;5023472;28;20456;-69
2023/09/15 06:07:25;;;;;;;22.08;14.95;;;;;;;19.42;100.00;96787.44;5019558;28;20563;-69
2023/09/15 06:09:50;;;;;;;19.08;13.02;;;;;;;20.86;100.00;96792.19;5023681;28;20076;-67
2023/09/15 06:12:16;;;;;;;16.95;11.50;;;;;;;21.34;94.80;96796.22;5016697;28;20047;-68
2023/09/15 06:14:41;;;;;;;16.88;12.30;;;;;;;22.29;88.34;96802.50;5022744;28;20057;-69
2023/09/15 06:17:06;;;;;;;20.98;12.95;;;;;;;22.18;85.26;96809.56;5019001;28;20136;-67
2023/09/15 06:19:32;;;;;;;17.25;12.05;;;;;;;22.66;79.82;96805.03;5023540;28;20091;-67
2023/09/15 06:21:57;;;;;;;18.95;12.02;;;;;;;22.11;85.92;96805.78;5022335;28;20079;-67
2023/09/15 06:24:23;;;;;;;15.82;11.77;;;;;;;22.51;82.48;96805.44;5017916;28;20568;-67
2023/09/15 06:26:48;;;;;;;17.75;11.77;;;;;;;23.14;78.56;96813.56;5023825;28;20084;-68
2023/09/15 06:29:15;;;;;;;15.00;10.70;;;;;;;23.83;73.27;96819.28;5015665;28;20400;-68
2023/09/15 06:31:41;;;;;;;14.80;11.57;;;;;;;23.08;77.96;96825.31;5023421;28;20104;-69
2023/09/15 06:34:07;;;;;;;15.48;11.35;;;;;;;24.09;71.64;96826.78;5018579;28;20074;-68
2023/09/15 06:36:32;;;;;;;18.80;12.30;;;;;;;24.48;67.20;96833.78;5023157;28;20045;-68
2023/09/15 06:38:58;;;;;;;14.35;10.60;;;;;;;24.98;64.86;96837.50;5022682;28;20045;-68
2023/09/15 06:41:23;;;;;;;14.27;10.95;;;;;;;25.30;62.71;96835.50;5018529;28;20412;-68
2023/09/15 06:43:49;;;;;;;17.20;13.32;;;;;;;21.85;78.43;96820.81;5022994;28;20053;-67
2023/09/15 06:46:21;;;;;;;19.33;12.68;;;;;;;22.65;79.18;96823.78;5027119;28;20087;-69
2023/09/15 06:48:47;;;;;;;17.35;13.05;;;;;;;22.15;80.55;96822.41;5032094;28;20087;-69
2023/09/15 06:51:13;;;;;;;14.75;11.55;;;;;;;23.38;77.12;96828.75;5018115;28;20084;-67
2023/09/15 06:53:38;;;;;;;17.45;12.40;;;;;;;23.73;72.31;96822.41;5023232;28;20049;-68
2023/09/15 06:56:04;;;;;;;16.35;12.73;;;;;;;21.15;89.49;96809.00;5034803;28;20053;-67
2023/09/15 06:58:29;;;;;;;19.60;14.80;;;;;;;20.67;92.94;96807.72;5021987;28;20042;-68
2023/09/15 07:00:55;;;;;;;18.77;14.38;;;;;;;18.73;100.00;96809.13;5042209;28;20047;-67
2023/09/15 07:03:22;;;;;;;24.33;16.25;;;;;;;17.64;100.00;96800.47;5019682;28;20412;-68
2023/09/15 07:05:47;;;;;;;23.98;18.50;;;;;;;17.09;100.00;96807.69;5021522;28;20044;-68
2023/09/15 07:08:12;;;;;;;25.38;17.90;;;;;;;16.59;100.00;96808.00;5017482;28;20053;-68
2023/09/15 07:10:38;;;;;;;28.73;18.83;;;;;;;16.45;100.00;96800.56;5021924;28;20361;-68
2023/09/15 07:13:03;;;;;;;28.45;19.88;;;;;;;16.35;100.00;96795.84;5018581;28;20107;-67
2023/09/15 07:15:32;;;;;;;30.48;19.60;;;;;;;16.23;100.00;96795.13;5019585;28;20385;-67
2023/09/15 07:17:58;;;;;;;26.73;19.43;;;;;;;16.18;100.00;96803.81;5022121;28;20135;-68
2023/09/15 07:20:23;;;;;;;28.90;20.17;;;;;;;16.21;100.00;96800.28;5017609;28;20211;-67
2023/09/15 07:22:48;;;;;;;28.40;18.60;;;;;;;16.25;100.00;96798.28;5022356;28;20060;-67
2023/09/15 07:25:14;;;;;;;27.27;19.45;;;;;;;16.01;100.00;96807.47;5016919;28;20045;-67
2023/09/15 07:27:39;;;;;;;26.55;19.55;;;;;;;15.96;100.00;96805.88;5022234;28;20045;-69
2023/09/15 07:30:05;;;;;;;30.00;20.17;;;;;;;15.83;100.00;96808.28;5016709;28;20148;-68
2023/09/15 07:32:31;;;;;;;35.78;20.95;;;;;;;15.77;100.00;96814.63;5021119;28;20084;-69
2023/09/15 07:34:56;;;;;;;29.77;21.40;;;;;;;15.84;100.00;96820.91;5022003;28;20083;-70
2023/09/15 07:37:21;;;;;;;31.60;21.35;;;;;;;15.59;100.00;96825.66;5015764;28;20700;-68
2023/09/15 07:39:47;;;;;;;29.10;19.95;;;;;;;15.79;100.00;96829.63;5021231;28;20392;-68
2023/09/15 07:42:12;;;;;;;34.38;21.33;;;;;;;15.55;100.00;96828.44;5012599;28;20045;-68
2023/09/15 07:44:40;;;;;;;30.80;21.40;;;;;;;15.67;100.00;96818.97;5022804;28;20454;-68
2023/09/15 07:47:06;;;;;;;32.47;21.50;;;;;;;15.33;100.00;96827.66;5015158;28;20110;-66
2023/09/15 07:49:33;;;;;;;35.97;24.60;;;;;;;15.60;100.00;96830.00;5019968;28;20365;-69
2023/09/15 07:51:58;;;;;;;30.77;21.23;;;;;;;15.93;100.00;96828.00;5020198;28;20045;-69
2023/09/15 07:54:24;;;;;;;33.78;21.95;;;;;;;15.84;100.00;96820.91;5022181;28;20049;-69
2023/09/15 07:56:50;;;;;;;28.67;20.95;;;;;;;15.81;100.00;96818.97;5019061;28;20050;-69
2023/09/15 07:59:15;;;;;;;36.22;22.17;;;;;;;15.97;100.00;96821.28;5015713;28;20181;-69
2023/09/15 08:01:40;;;;;;;32.33;20.63;;;;;;;16.00;100.00;96819.69;5021255;28;20430;-69
2023/09/15 08:04:06;;;;;;;30.58;21.25;;;;;;;15.86;100.00;96824.06;5016253;28;20049;-69
2023/09/15 08:06:31;;;;;;;30.23;20.52;;;;;;;16.21;100.00;96829.88;5021511;28;20054;-69
2023/09/15 08:08:57;;;;;;;32.83;20.85;;;;;;;16.07;100.00;96832.69;5023390;28;20086;-68
2023/09/15 08:11:22;;;;;;;34.83;21.95;;;;;;;15.79;100.00;96826.03;5016270;28;20060;-69
2023/09/15 08:13:48;;;;;;;35.38;22.42;;;;;;;16.04;100.00;96828.75;5021238;28;20049;-69
2023/09/15 08:16:13;;;;;;;28.88;20.75;;;;;;;16.17;100.00;96829.91;5015504;28;20049;-69
2023/09/15 08:18:39;;;;;;;31.10;21.13;;;;;;;16.27;100.00;96827.50;5020953;28;20421;-69
2023/09/15 08:21:05;;;;;;;33.63;21.88;;;;;;;16.26;100.00;96832.25;5015810;28;20046;-68
2023/09/15 08:23:30;;;;;;;26.67;19.45;;;;;;;16.31;100.00;96819.97;5021678;28;20052;-69
2023/09/15 08:25:56;;;;;;;34.65;21.70;;;;;;;16.24;100.00;96827.09;5021299;28;20396;-68
2023/09/15 08:28:22;;;;;;;31.15;21.85;;;;;;;16.03;100.00;96821.66;5015926;28;20237;-68
2023/09/15 08:30:50;;;;;;;33.28;21.33;;;;;;;16.24;100.00;96818.00;5020837;28;20044;-69
2023/09/15 08:33:16;;;;;;;29.83;20.38;;;;;;;16.67;100.00;96817.03;5022561;28;20049;-69
2023/09/15 08:35:41;;;;;;;29.80;20.95;;;;;;;16.33;100.00;96820.34;5039189;28;20041;-69
2023/09/15 08:38:07;;;;;;;29.08;20.15;;;;;;;16.37;100.00;96818.38;5018260;28;20447;-68
2023/09/15 08:40:38;;;;;;;29.45;19.80;;;;;;;16.42;100.00;96815.97;5020762;28;20073;-68
2023/09/15 08:43:06;;;;;;;33.65;20.38;;;;;;;16.85;100.00;96816.94;5032249;28;20049;-67
2023/09/15 08:45:33;;;;;;;29.50;20.50;;;;;;;16.74;100.00;96823.28;5021023;28;20046;-70
2023/09/15 08:48:02;;;;;;;30.05;18.75;;;;;;;17.15;100.00;96819.88;5020181;28;20504;-68
2023/09/15 08:50:29;;;;;;;28.67;20.08;;;;;;;16.80;100.00;96824.44;5004041;28;20080;-67
2023/09/15 08:52:55;;;;;;;29.92;20.65;;;;;;;16.74;100.00;96828.81;5026448;28;20133;-67
2023/09/15 08:55:21;;;;;;;30.90;20.13;;;;;;;16.68;100.00;96818.59;5025721;28;20037;-68
2023/09/15 08:57:46;;;;;;;29.50;20.15;;;;;;;16.72;100.00;96822.13;5027105;28;20080;-67
2023/09/15 09:00:12;;;;;;;28.42;20.00;;;;;;;16.52;100.00;96819.88;5003391;28;20540;-67
2023/09/15 09:02:39;;;;;;;28.60;19.25;;;;;;;17.05;100.00;96823.53;5013779;28;20055;-68
2023/09/15 09:05:06;;;;;;;26.63;19.25;;;;;;;17.35;100.00;96830.41;4998573;28;20048;-67
2023/09/15 09:07:32;;;;;;;27.48;18.95;;;;;;;17.44;100.00;96827.19;5007938;28;20046;-67
2023/09/15 09:09:59;;;;;;;26.88;19.75;;;;;;;17.15;100.00;96821.88;5008285;28;20048;-68
2023/09/15 09:12:24;;;;;;;31.70;20.27;;;;;;;17.12;100.00;96819.91;5002136;28;20485;-67
2023/09/15 09:14:54;;;;;;;26.13;18.10;;;;;;;17.62;100.00;96829.78;5007711;28;20400;-68
2023/09/15 09:17:22;;;;;;;28.25;18.52;;;;;;;18.09;100.00;96836.44;4998646;28;20046;-68
2023/09/15 09:19:49;;;;;;;21.73;16.52;;;;;;;18.74;100.00;96827.31;5005322;28;20104;-69
2023/09/15 09:22:18;;;;;;;22.05;16.25;;;;;;;19.13;100.00;96828.00;5003793;28;20053;-69
2023/09/15 09:24:45;;;;;;;26.35;17.95;;;;;;;18.50;100.00;96832.78;5009036;28;20086;-69
2023/09/15 09:27:12;;;;;;;25.25;18.33;;;;;;;18.63;100.00;96830.22;5003653;28;20050;-68
2023/09/15 09:29:38;;;;;;;22.98;16.38;;;;;;;19.44;100.00;96832.22;5018037;28;20041;-68
2023/09/15 09:32:05;;;;;;;23.23;16.77;;;;;;;19.80;100.00;96837.19;5012319;28;20372;-68
2023/09/15 09:34:30;;;;;;;23.77;15.48;;;;;;;19.58;100.00;96830.44;5011779;28;20114;-68
2023/09/15 09:36:56;;;;;;;25.55;18.05;;;;;;;19.43;100.00;96829.91;5020472;28;20162;-67
2023/09/15 09:39:21;;;;;;;23.00;15.13;;;;;;;20.10;100.00;96829.91;4999545;28;20053;-67
2023/09/15 09:41:47;;;;;;;25.48;16.17;;;;;;;20.13;100.00;96831.84;5004881;28;20046;-68
2023/09/15 09:44:13;;;;;;;22.00;15.90;;;;;;;20.68;100.00;96823.97;4999757;28;20050;-66
2023/09/15 09:46:42;;;;;;;24.50;15.82;;;;;;;20.81;100.00;96830.47;5007846;28;20049;-67
2023/09/15 09:49:08;;;;;;;19.63;15.23;;;;;;;21.22;100.00;96825.53;4999093;28;20056;-69
2023/09/15 09:51:38;;;;;;;21.52;16.00;;;;;;;19.72;100.00;96823.84;5004061;28;20074;-68
2023/09/15 09:54:06;;;;;;;19.88;13.10;;;;;;;21.00;100.00;96822.47;5012813;28;20072;-67
2023/09/15 09:56:32;;;;;;;20.45;13.57;;;;;;;22.21;97.85;96825.44;5008571;28;20463;-68
2023/09/15 09:59:10;;;;;;;22.42;16.60;;;;;;;20.38;100.00;96819.41;5014724;28;20519;-68
2023/09/15 10:01:36;;;;;;;22.20;16.52;;;;;;;19.53;100.00;96819.78;5016906;28;20565;-67
2023/09/15 10:04:05;;;;;;;23.80;16.58;;;;;;;19.70;100.00;96820.69;5022046;28;20057;-67
2023/09/15 10:06:32;;;;;;;22.50;15.52;;;;;;;20.43;100.00;96813.34;5023694;28;20046;-67
2023/09/15 10:08:59;;;;;;;21.23;14.63;;;;;;;21.82;99.12;96816.13;5031562;28;20049;-68
2023/09/15 10:11:26;;;;;;;18.67;14.00;;;;;;;21.33;97.80;96811.34;5008631;28;20518;-67
2023/09/15 10:13:52;;;;;;;23.20;15.88;;;;;;;20.14;100.00;96811.16;5032399;28;20500;-67
2023/09/15 10:16:18;;;;;;;21.08;15.82;;;;;;;20.61;100.00;96807.44;5018206;28;20148;-67
2023/09/15 10:18:44;;;;;;;23.80;13.93;;;;;;;22.75;95.11;96805.16;5022372;28;20055;-67
2023/09/15 10:21:11;;;;;;;16.92;12.52;;;;;;;24.77;80.85;96818.72;5018432;28;20045;-67
2023/09/15 10:23:36;;;;;;;18.83;13.50;;;;;;;24.92;72.85;96816.16;5022784;28;20068;-67
2023/09/15 10:26:04;;;;;;;21.00;15.50;;;;;;;22.38;86.09;96817.81;5023031;28;20494;-67
2023/09/15 10:28:30;;;;;;;31.42;23.23;;;;;;;22.44;85.90;96818.84;5033801;28;20115;-67
2023/09/15 10:30:55;;;;;;;19.15;14.07;;;;;;;21.53;96.81;96802.94;5026458;28;20136;-67
2023/09/15 10:33:25;;;;;;;17.30;13.38;;;;;;;21.99;96.71;96808.50;5026372;28;20455;-67
2023/09/15 10:35:51;;;;;;;14.82;10.80;;;;;;;22.91;87.96;96807.06;5022600;28;20045;-67
2023/09/15 10:38:29;;;;;;;13.25;10.25;;;;;;;25.54;69.78;96820.91;5017152;28;20049;-68
2023/09/15 10:40:56;;;;;;;13.63;9.35;;;;;;;26.75;60.89;96827.34;5022344;28;20053;-68
2023/09/15 10:43:21;;;;;;;11.60;9.38;;;;;;;27.29;56.62;96834.03;5017298;28;20627;-67
2023/09/15 10:45:57;;;;;;;12.70;8.55;;;;;;;27.85;55.73;96823.25;5022864;28;20488;-66
2023/09/15 10:48:46;;;;;;;12.23;8.48;;;;;;;27.60;55.74;96821.69;5026218;28;20521;-67
2023/09/15 10:51:13;;;;;;;12.80;8.85;;;;;;;27.39;55.83;96818.69;5016540;28;20479;-67
2023/09/15 10:53:46;;;;;;;10.80;7.28;;;;;;;27.57;55.62;96817.81;5022318;28;20073;-68
2023/09/15 10:56:13;;;;;;;10.02;8.07;;;;;;;28.37;53.00;96829.41;5019502;28;20045;-68
2023/09/15 10:58:39;;;;;;;10.13;8.57;;;;;;;27.85;53.66;96814.81;5023331;28;20132;-68
2023/09/15 11:01:05;;;;;;;14.07;10.65;;;;;;;26.50;56.66;96821.56;5016435;28;20045;-67
2023/09/15 11:03:31;;;;;;;13.77;9.82;;;;;;;27.21;54.40;96815.94;5023038;28;20045;-68
2023/09/15 11:05:58;;;;;;;12.30;9.23;;;;;;;27.64;53.55;96816.66;5021960;28;20078;-67
2023/09/15 11:08:25;;;;;;;10.48;8.82;;;;;;;26.89;57.18;96807.00;5016551;28;20280;-67
2023/09/15 11:11:03;;;;;;;11.20;9.38;;;;;;;26.54;57.43;96798.16;5022740;28;20449;-67